createdAt,value
2019-04-05T00:01:41.934Z,13.53
2019-04-05T00:04:10.497Z,13.27
2019-04-05T00:06:39.087Z,13.77
2019-04-05T00:09:07.601Z,13.80
2019-04-05T00:11:36.170Z,14.30
2019-04-05T00:14:04.711Z,13.13
2019-04-05T00:16:33.228Z,13.70
2019-04-05T00:19:01.769Z,13.30
2019-04-05T00:21:30.260Z,14.17
2019-04-05T00:23:58.742Z,13.40
2019-04-05T00:26:27.337Z,13.43
2019-04-05T00:28:55.827Z,14.60
2019-04-05T00:31:24.325Z,14.20
2019-04-05T00:33:54.456Z,14.20
2019-04-05T00:36:23.005Z,14.13
2019-04-05T00:38:51.551Z,14.50
2019-04-05T00:41:20.061Z,14.03
2019-04-05T00:43:48.620Z,13.50
2019-04-05T00:46:17.095Z,13.80
2019-04-05T00:48:45.601Z,13.10
2019-04-05T00:51:14.176Z,13.00
2019-04-05T00:53:42.672Z,14.00
2019-04-05T00:56:11.228Z,13.27
2019-04-05T00:58:39.896Z,14.13
2019-04-05T01:01:08.417Z,13.90
2019-04-05T01:03:36.979Z,14.77
2019-04-05T01:06:05.559Z,14.37
2019-04-05T01:08:34.147Z,14.60
2019-04-05T01:11:19.166Z,14.20
2019-04-05T01:13:48.644Z,13.60
2019-04-05T01:16:17.206Z,14.67
2019-04-05T01:18:45.711Z,13.30
2019-04-05T01:21:17.335Z,14.73
2019-04-05T01:23:45.842Z,14.90
2019-04-05T01:26:15.138Z,14.57
2019-04-05T01:28:43.779Z,15.30
2019-04-05T01:31:12.263Z,13.50
2019-04-05T01:33:40.767Z,14.00
2019-04-05T01:36:09.266Z,14.20
2019-04-05T01:38:37.757Z,13.67
2019-04-05T01:41:06.307Z,13.33
2019-04-05T01:43:34.889Z,14.30
2019-04-05T01:46:03.535Z,13.47
2019-04-05T01:48:32.090Z,13.30
2019-04-05T01:51:00.569Z,13.53
2019-04-05T01:53:29.333Z,14.60
2019-04-05T01:55:57.831Z,13.50
2019-04-05T01:58:26.407Z,15.67
2019-04-05T02:00:54.889Z,14.23
2019-04-05T02:03:23.478Z,14.83
2019-04-05T02:05:52.026Z,14.53
2019-04-05T02:08:20.749Z,13.17
2019-04-05T02:10:49.214Z,13.17
2019-04-05T02:13:17.739Z,15.97
2019-04-05T02:15:46.483Z,14.80
2019-04-05T02:18:14.976Z,14.47
2019-04-05T02:20:43.546Z,13.93
2019-04-05T02:23:12.192Z,13.80
2019-04-05T02:25:40.679Z,13.67
2019-04-05T02:28:09.150Z,14.77
2019-04-05T02:30:37.777Z,14.83
2019-04-05T02:33:06.491Z,15.00
2019-04-05T02:35:38.815Z,14.93
2019-04-05T02:38:05.434Z,13.80
2019-04-05T02:40:36.245Z,14.63
2019-04-05T02:43:06.267Z,14.60
2019-04-05T02:45:37.920Z,14.43
2019-04-05T02:48:09.472Z,15.17
2019-04-05T02:50:41.480Z,15.17
2019-04-05T02:53:11.658Z,14.57
2019-04-05T02:55:43.071Z,14.23
2019-04-05T02:58:13.182Z,16.40
2019-04-05T03:00:43.004Z,14.50
2019-04-05T03:03:12.041Z,12.87
2019-04-05T03:05:40.939Z,15.13
2019-04-05T03:08:09.871Z,14.80
2019-04-05T03:10:55.786Z,14.23
2019-04-05T03:13:30.413Z,15.90
2019-04-05T03:16:01.971Z,16.47
2019-04-05T03:18:32.463Z,14.53
2019-04-05T03:21:04.038Z,14.40
2019-04-05T03:23:35.673Z,14.17
2019-04-05T03:26:06.254Z,15.37
2019-04-05T03:28:37.707Z,14.90
2019-04-05T03:31:06.478Z,15.93
2019-04-05T03:33:35.348Z,16.70
2019-04-05T03:36:03.936Z,16.50
2019-04-05T03:38:32.498Z,16.60
2019-04-05T03:41:01.746Z,14.93
2019-04-05T03:43:30.275Z,15.07
2019-04-05T03:45:58.994Z,15.40
2019-04-05T03:48:27.582Z,16.00
2019-04-05T03:50:56.454Z,14.03
2019-04-05T03:53:25.261Z,15.90
2019-04-05T03:55:53.875Z,15.37
2019-04-05T03:58:22.507Z,16.43
2019-04-05T04:00:51.080Z,15.63
2019-04-05T04:03:19.691Z,16.03
2019-04-05T04:05:48.329Z,15.27
2019-04-05T04:08:17.329Z,15.40
2019-04-05T04:10:47.058Z,15.80
2019-04-05T04:13:15.683Z,15.83
2019-04-05T04:15:44.607Z,15.20
2019-04-05T04:18:13.542Z,15.70
2019-04-05T04:20:51.182Z,17.57
2019-04-05T04:23:22.370Z,16.17
2019-04-05T04:25:52.163Z,16.87
2019-04-05T04:28:20.885Z,17.73
2019-04-05T04:30:49.723Z,17.67
2019-04-05T04:33:19.429Z,16.10
2019-04-05T04:35:48.354Z,17.47
2019-04-05T04:38:17.594Z,16.97
2019-04-05T04:40:46.886Z,17.83
2019-04-05T04:43:15.784Z,16.23
2019-04-05T04:45:44.569Z,17.97
2019-04-05T04:48:13.722Z,17.50
2019-04-05T04:50:43.092Z,16.07
2019-04-05T04:53:11.958Z,16.60
2019-04-05T04:55:40.500Z,16.63
2019-04-05T04:58:09.652Z,17.57
2019-04-05T05:00:38.458Z,17.30
2019-04-05T05:03:07.266Z,17.90
2019-04-05T05:05:35.889Z,16.70
2019-04-05T05:08:04.939Z,18.97
2019-04-05T05:10:33.859Z,17.47
2019-04-05T05:13:02.682Z,16.57
2019-04-05T05:15:31.308Z,17.60
2019-04-05T05:18:00.236Z,18.67
2019-04-05T05:20:29.050Z,17.80
2019-04-05T05:22:57.550Z,18.13
2019-04-05T05:25:26.310Z,18.00
2019-04-05T05:27:54.833Z,18.00
2019-04-05T05:30:23.351Z,16.47
2019-04-05T05:32:51.914Z,17.30
2019-04-05T05:35:20.938Z,18.83
2019-04-05T05:37:49.704Z,20.40
2019-04-05T05:40:18.753Z,20.10
2019-04-05T05:42:47.419Z,22.73
2019-04-05T05:45:16.275Z,24.87
2019-04-05T05:47:51.661Z,28.47
2019-04-05T05:50:15.347Z,30.97
2019-04-05T05:52:44.160Z,37.00
2019-04-05T05:55:12.954Z,41.40
2019-04-05T05:57:41.513Z,42.80
2019-04-05T06:00:13.358Z,38.40
2019-04-05T06:02:41.926Z,42.67
2019-04-05T06:05:10.692Z,42.77
2019-04-05T06:07:39.251Z,41.53
2019-04-05T06:10:08.097Z,43.03
2019-04-05T06:12:36.679Z,44.10
2019-04-05T06:15:08.306Z,42.87
2019-04-05T06:17:36.911Z,47.63
2019-04-05T06:20:07.821Z,44.77
2019-04-05T06:22:36.376Z,43.83
2019-04-05T06:25:24.212Z,45.07
2019-04-05T06:27:52.851Z,45.63
2019-04-05T06:30:21.503Z,47.47
2019-04-05T06:32:50.029Z,46.50
2019-04-05T06:35:18.603Z,44.90
2019-04-05T06:37:47.188Z,44.60
2019-04-05T06:40:15.829Z,46.90
2019-04-05T06:42:44.402Z,47.30
2019-04-05T06:45:13.188Z,44.00
2019-04-05T06:47:41.755Z,47.90
2019-04-05T06:50:10.668Z,43.90
2019-04-05T06:52:39.173Z,43.53
2019-04-05T06:55:07.818Z,43.83
2019-04-05T06:57:36.363Z,47.47
2019-04-05T07:00:06.669Z,42.93
2019-04-05T07:02:35.247Z,46.20
2019-04-05T07:05:05.226Z,46.47
2019-04-05T07:07:33.767Z,47.40
2019-04-05T07:10:02.313Z,47.20
2019-04-05T07:12:30.802Z,46.53
2019-04-05T07:14:59.396Z,48.43
2019-04-05T07:17:28.024Z,49.80
2019-04-05T07:19:56.634Z,49.17
2019-04-05T07:22:36.959Z,48.87
2019-04-05T07:24:55.442Z,49.17
2019-04-05T07:27:23.990Z,50.33
2019-04-05T07:29:52.600Z,46.93
2019-04-05T07:32:21.181Z,51.77
2019-04-05T07:34:49.781Z,49.40
2019-04-05T07:37:18.300Z,47.47
2019-04-05T07:39:46.823Z,49.03
2019-04-05T07:42:15.369Z,52.20
2019-04-05T07:44:43.888Z,52.60
2019-04-05T07:47:12.479Z,47.67
2019-04-05T07:49:40.970Z,49.30
2019-04-05T07:52:12.871Z,47.10
2019-04-05T07:54:45.662Z,45.73
2019-04-05T07:57:14.270Z,45.43
2019-04-05T07:59:42.838Z,50.97
2019-04-05T08:02:11.404Z,50.63
2019-04-05T08:04:39.949Z,51.00
2019-04-05T08:07:09.015Z,47.57
2019-04-05T08:09:38.493Z,50.47
2019-04-05T08:12:07.861Z,51.53
2019-04-05T08:14:39.424Z,52.17
2019-04-05T08:17:07.987Z,49.17
2019-04-05T08:19:36.641Z,52.23
2019-04-05T08:22:05.696Z,48.33
2019-04-05T08:24:34.321Z,49.07
2019-04-05T08:27:02.843Z,48.93
2019-04-05T08:29:31.370Z,50.73
2019-04-05T08:31:59.947Z,48.87
2019-04-05T08:34:28.488Z,48.80
2019-04-05T08:36:57.052Z,48.70
2019-04-05T08:39:25.626Z,47.50
2019-04-05T08:41:54.192Z,48.57
2019-04-05T08:44:22.702Z,47.90
2019-04-05T08:46:51.274Z,46.07
2019-04-05T08:49:19.820Z,45.40
2019-04-05T08:51:48.437Z,43.33
2019-04-05T08:54:17.003Z,43.53
2019-04-05T08:56:45.527Z,45.30
2019-04-05T08:59:14.046Z,44.53
2019-04-05T09:01:42.581Z,44.60
2019-04-05T09:04:11.167Z,43.83
2019-04-05T09:06:39.759Z,43.37
2019-04-05T09:09:08.314Z,49.47
2019-04-05T09:11:36.805Z,47.97
2019-04-05T09:14:05.576Z,45.03
2019-04-05T09:16:34.231Z,46.43
2019-04-05T09:19:02.730Z,45.40
2019-04-05T09:21:31.315Z,46.50
2019-04-05T09:23:59.924Z,48.63
2019-04-05T09:26:28.520Z,49.27
2019-04-05T09:28:57.080Z,46.30
2019-04-05T09:31:25.666Z,51.23
2019-04-05T09:33:55.536Z,48.00
2019-04-05T09:36:24.160Z,52.70
2019-04-05T09:38:52.746Z,45.87
2019-04-05T09:41:21.288Z,53.60
2019-04-05T09:43:49.881Z,51.13
2019-04-05T09:46:18.501Z,53.03
2019-04-05T09:48:47.428Z,50.17
2019-04-05T09:51:16.064Z,52.63
2019-04-05T09:53:44.650Z,53.13
2019-04-05T09:56:13.145Z,54.37
2019-04-05T09:58:41.732Z,53.60
2019-04-05T10:01:10.206Z,51.63
2019-04-05T10:03:38.744Z,51.30
2019-04-05T10:06:07.654Z,51.90
2019-04-05T10:08:36.205Z,47.77
2019-04-05T10:11:04.831Z,49.73
2019-04-05T10:13:33.439Z,50.17
2019-04-05T10:16:01.946Z,53.50
2019-04-05T10:18:30.571Z,52.47
2019-04-05T10:20:59.159Z,50.40
2019-04-05T10:23:27.672Z,49.47
2019-04-05T10:25:56.228Z,44.83
2019-04-05T10:28:24.749Z,40.73
2019-04-05T10:30:53.342Z,43.07
2019-04-05T10:33:21.900Z,43.87
2019-04-05T10:35:50.389Z,38.40
2019-04-05T10:38:18.970Z,39.57
2019-04-05T10:40:47.520Z,40.87
2019-04-05T10:43:16.089Z,39.40
2019-04-05T10:45:44.565Z,38.10
2019-04-05T10:48:13.161Z,36.33
2019-04-05T10:50:41.793Z,35.30
2019-04-05T10:53:10.479Z,38.07
2019-04-05T10:55:39.021Z,37.30
2019-04-05T10:58:07.664Z,35.73
2019-04-05T11:00:36.182Z,36.50
2019-04-05T11:03:04.757Z,36.30
2019-04-05T11:05:33.311Z,37.37
2019-04-05T11:08:02.079Z,37.50
2019-04-05T11:10:30.622Z,36.57
2019-04-05T11:12:59.195Z,38.60
2019-04-05T11:15:28.809Z,38.50
2019-04-05T11:17:57.997Z,37.13
2019-04-05T11:20:26.511Z,37.17
2019-04-05T11:22:55.094Z,38.70
2019-04-05T11:25:23.643Z,38.90
2019-04-05T11:27:52.195Z,38.67
2019-04-05T11:30:29.433Z,36.43
2019-04-05T11:32:57.995Z,38.83
2019-04-05T11:35:26.643Z,38.00
2019-04-05T11:37:56.088Z,37.77
2019-04-05T11:40:24.707Z,38.90
2019-04-05T11:42:54.067Z,38.30
2019-04-05T11:45:22.678Z,37.80
2019-04-05T11:47:53.524Z,38.10
2019-04-05T11:50:33.543Z,39.20
2019-04-05T11:52:51.730Z,39.03
2019-04-05T11:55:20.293Z,37.27
2019-04-05T11:57:48.876Z,38.03
2019-04-05T12:00:22.311Z,39.10
2019-04-05T12:02:55.594Z,38.50
2019-04-05T12:05:26.899Z,37.63
2019-04-05T12:07:58.583Z,37.70
2019-04-05T12:10:24.712Z,36.60
2019-04-05T12:12:53.277Z,38.53
2019-04-05T12:15:21.783Z,37.57
2019-04-05T12:18:02.452Z,38.03
2019-04-05T12:20:33.254Z,38.97
2019-04-05T12:23:01.620Z,38.17
2019-04-05T12:25:31.857Z,36.27
2019-04-05T12:28:07.588Z,38.30
2019-04-05T12:30:31.436Z,37.07
2019-04-05T12:33:12.674Z,37.20
2019-04-05T12:35:30.636Z,36.17
2019-04-05T12:38:00.050Z,38.80
2019-04-05T12:40:28.707Z,37.77
2019-04-05T12:42:57.599Z,37.37
2019-04-05T12:45:26.441Z,37.93
2019-04-05T12:47:55.252Z,37.37
2019-04-05T12:50:24.416Z,38.67
2019-04-05T12:52:54.701Z,40.90
2019-04-05T12:55:24.502Z,40.40
2019-04-05T12:57:53.292Z,43.90
2019-04-05T13:00:25.982Z,39.00
2019-04-05T13:02:56.860Z,40.00
2019-04-05T13:05:24.498Z,39.77
2019-04-05T13:07:53.403Z,40.40
2019-04-05T13:10:25.049Z,40.70
2019-04-05T13:12:52.313Z,38.77
2019-04-05T13:15:20.841Z,39.17
2019-04-05T13:17:49.457Z,39.50
2019-04-05T13:20:18.125Z,42.30
2019-04-05T13:22:46.781Z,39.90
2019-04-05T13:25:15.358Z,38.37
2019-04-05T13:27:43.928Z,38.00
2019-04-05T13:30:12.903Z,36.17
2019-04-05T13:32:41.474Z,39.00
2019-04-05T13:35:10.318Z,36.03
2019-04-05T13:37:38.887Z,43.10
2019-04-05T13:40:09.101Z,38.07
2019-04-05T13:42:37.584Z,36.57
2019-04-05T13:45:09.767Z,38.30
2019-04-05T13:47:39.146Z,38.70
2019-04-05T13:50:10.927Z,39.03
2019-04-05T13:52:41.509Z,40.37
2019-04-05T13:55:11.335Z,40.03
2019-04-05T13:57:40.962Z,39.03
2019-04-05T14:00:10.626Z,39.00
2019-04-05T14:02:39.177Z,37.80
2019-04-05T14:05:07.976Z,39.17
2019-04-05T14:07:36.548Z,39.60
2019-04-05T14:10:10.754Z,38.47
2019-04-05T14:12:40.219Z,41.83
2019-04-05T14:15:10.869Z,37.10
2019-04-05T14:17:38.698Z,37.77
2019-04-05T14:20:09.307Z,39.63
2019-04-05T14:22:37.975Z,37.00
2019-04-05T14:25:08.853Z,41.00
2019-04-05T14:27:37.382Z,37.30
2019-04-05T14:30:06.917Z,39.20
2019-04-05T14:32:35.488Z,38.00
2019-04-05T14:35:07.739Z,36.63
2019-04-05T14:37:36.322Z,37.13
2019-04-05T14:40:09.359Z,38.17
2019-04-05T14:42:38.167Z,37.60
2019-04-05T14:45:09.603Z,39.17
2019-04-05T14:47:41.271Z,39.27
2019-04-05T14:50:09.591Z,36.73
2019-04-05T14:52:38.081Z,39.00
2019-04-05T14:55:07.008Z,35.53
2019-04-05T14:57:36.525Z,38.00
2019-04-05T15:00:08.479Z,37.90
2019-04-05T15:02:37.064Z,36.73
2019-04-05T15:05:09.059Z,38.10
2019-04-05T15:07:38.043Z,38.77
2019-04-05T15:10:07.552Z,36.10
2019-04-05T15:12:36.055Z,35.67
2019-04-05T15:15:07.460Z,36.37
2019-04-05T15:17:47.381Z,35.90
2019-04-05T15:20:08.978Z,35.23
2019-04-05T15:22:37.553Z,35.73
2019-04-05T15:25:07.660Z,35.57
2019-04-05T15:27:55.675Z,36.57
2019-04-05T15:30:26.629Z,36.10
2019-04-05T15:32:57.680Z,36.27
2019-04-05T15:35:26.448Z,36.73
2019-04-05T15:37:55.773Z,37.00
2019-04-05T15:40:24.343Z,38.10
2019-04-05T15:42:52.847Z,38.07
2019-04-05T15:45:21.716Z,38.77
2019-04-05T15:47:52.530Z,37.80
2019-04-05T15:50:22.062Z,37.50
2019-04-05T15:52:50.852Z,36.83
2019-04-05T15:55:19.427Z,37.10
2019-04-05T15:57:48.065Z,35.90
2019-04-05T16:00:21.349Z,37.37
2019-04-05T16:02:49.925Z,37.37
2019-04-05T16:05:19.244Z,37.43
2019-04-05T16:07:47.851Z,37.83
2019-04-05T16:10:17.072Z,38.90
2019-04-05T16:12:45.743Z,34.57
2019-04-05T16:15:14.633Z,36.20
2019-04-05T16:17:43.266Z,38.33
2019-04-05T16:20:12.479Z,34.60
2019-04-05T16:22:41.068Z,36.80
2019-04-05T16:25:10.183Z,37.30
2019-04-05T16:27:38.848Z,38.60
2019-04-05T16:30:08.271Z,37.13
2019-04-05T16:32:36.846Z,38.00
2019-04-05T16:35:08.170Z,36.80
2019-04-05T16:37:36.698Z,36.20
2019-04-05T16:40:07.162Z,34.30
2019-04-05T16:42:35.698Z,36.57
2019-04-05T16:45:09.293Z,36.60
2019-04-05T16:47:37.883Z,36.13
2019-04-05T16:50:09.695Z,38.27
2019-04-05T16:52:44.868Z,37.47
2019-04-05T16:55:08.868Z,34.53
2019-04-05T16:57:37.532Z,33.67
2019-04-05T17:00:08.399Z,35.80
2019-04-05T17:02:37.093Z,35.87
2019-04-05T17:05:06.838Z,38.60
2019-04-05T17:07:35.482Z,36.00
2019-04-05T17:10:05.486Z,36.03
2019-04-05T17:12:34.084Z,37.63
2019-04-05T17:15:02.618Z,38.97
2019-04-05T17:17:31.325Z,37.47
2019-04-05T17:19:59.921Z,33.47
2019-04-05T17:22:28.533Z,35.60
2019-04-05T17:24:57.134Z,36.47
2019-04-05T17:27:25.750Z,36.90
2019-04-05T17:29:54.366Z,36.50
2019-04-05T17:32:22.945Z,34.53
2019-04-05T17:34:51.551Z,37.37
2019-04-05T17:37:20.136Z,36.87
2019-04-05T17:39:48.672Z,36.43
2019-04-05T17:42:17.267Z,37.47
2019-04-05T17:44:45.838Z,36.20
2019-04-05T17:47:14.459Z,36.03
2019-04-05T17:49:43.069Z,36.97
2019-04-05T17:52:11.693Z,36.63
2019-04-05T17:54:40.280Z,38.70
2019-04-05T17:57:08.978Z,38.60
2019-04-05T17:59:38.093Z,37.17
2019-04-05T18:02:06.713Z,40.50
2019-04-05T18:04:35.298Z,40.70
2019-04-05T18:07:04.194Z,37.07
2019-04-05T18:09:34.216Z,38.97
2019-04-05T18:12:03.867Z,37.73
2019-04-05T18:14:32.571Z,38.37
2019-04-05T18:17:01.602Z,41.70
2019-04-05T18:19:30.409Z,39.33
2019-04-05T18:21:59.189Z,39.10
2019-04-05T18:24:28.101Z,41.17
2019-04-05T18:26:56.973Z,38.87
2019-04-05T18:29:25.944Z,38.60
2019-04-05T18:31:55.255Z,41.63
2019-04-05T18:34:24.185Z,38.53
2019-04-05T18:36:53.151Z,38.50
2019-04-05T18:39:23.181Z,40.73
2019-04-05T18:41:51.870Z,40.03
2019-04-05T18:44:21.866Z,39.07
2019-04-05T18:46:50.748Z,38.07
2019-04-05T18:49:19.715Z,38.67
2019-04-05T18:51:48.499Z,41.17
2019-04-05T18:54:18.934Z,37.83
2019-04-05T18:56:47.619Z,37.27
2019-04-05T18:59:16.387Z,39.30
2019-04-05T19:01:46.185Z,40.97
2019-04-05T19:04:15.052Z,38.37
2019-04-05T19:06:46.575Z,37.70
2019-04-05T19:09:15.389Z,37.47
2019-04-05T19:11:44.068Z,40.03
2019-04-05T19:14:12.791Z,38.30
2019-04-05T19:16:41.448Z,39.50
2019-04-05T19:19:10.977Z,38.97
2019-04-05T19:21:41.784Z,39.30
2019-04-05T19:24:13.715Z,37.90
2019-04-05T19:26:42.324Z,40.07
2019-04-05T19:29:11.130Z,38.73
2019-04-05T19:49:15.969Z,39.00
2019-04-05T19:51:44.703Z,40.87
2019-04-05T19:54:13.306Z,39.60
2019-04-05T19:56:43.486Z,40.23
2019-04-05T19:59:12.099Z,40.67
2019-04-05T20:01:40.866Z,38.30
2019-04-05T20:04:09.702Z,40.70
2019-04-05T20:06:39.157Z,40.90
2019-04-05T20:09:09.204Z,42.40
2019-04-05T20:11:37.956Z,42.50
2019-04-05T20:14:06.732Z,41.97
2019-04-05T20:16:35.380Z,41.10
2019-04-05T20:19:04.187Z,41.63
2019-04-05T20:21:32.986Z,41.60
2019-04-05T20:24:13.327Z,42.10
2019-04-05T20:26:32.725Z,39.93
2019-04-05T20:29:02.702Z,39.60
2019-04-05T20:31:33.748Z,41.90
2019-04-05T20:34:02.431Z,39.90
2019-04-05T20:36:31.109Z,39.87
2019-04-05T20:38:59.841Z,42.10
2019-04-05T20:41:28.666Z,42.70
2019-04-05T20:43:57.486Z,42.17
2019-04-05T20:46:26.165Z,42.33
2019-04-05T20:48:54.936Z,41.30
2019-04-05T20:51:23.631Z,42.87
2019-04-05T20:53:52.376Z,43.73
2019-04-05T20:56:21.095Z,39.67
2019-04-05T20:58:49.728Z,42.40
2019-04-05T21:01:18.492Z,42.80
2019-04-05T21:03:47.065Z,40.27
2019-04-05T21:06:17.209Z,42.23
2019-04-05T21:08:45.887Z,42.33
2019-04-05T21:11:14.536Z,45.40
2019-04-05T21:13:43.192Z,40.90
2019-04-05T21:16:11.786Z,40.13
2019-04-05T21:18:40.376Z,40.67
2019-04-05T21:21:09.050Z,43.07
2019-04-05T21:23:37.609Z,40.83
2019-04-05T21:26:06.214Z,40.37
2019-04-05T21:28:34.779Z,40.70
2019-04-05T21:31:03.409Z,41.17
2019-04-05T21:33:33.075Z,40.50
2019-04-05T21:36:01.706Z,41.33
2019-04-05T21:38:30.281Z,43.13
2019-04-05T21:40:58.931Z,42.07
2019-04-05T21:43:27.476Z,40.50
2019-04-05T21:45:56.109Z,40.30
2019-04-05T21:48:24.646Z,43.33
2019-04-05T21:50:53.213Z,42.50
2019-04-05T21:53:21.721Z,41.30
2019-04-05T21:56:00.533Z,40.93
2019-04-05T21:58:29.108Z,38.73
2019-04-05T22:01:02.636Z,40.53
2019-04-05T22:03:31.200Z,40.73
2019-04-05T22:05:59.766Z,42.33
2019-04-05T22:08:28.260Z,39.60
2019-04-05T22:10:56.867Z,40.77
2019-04-05T22:13:25.436Z,40.90
2019-04-05T22:15:54.006Z,39.30
2019-04-05T22:18:22.489Z,39.40
2019-04-05T22:20:51.064Z,41.53
2019-04-05T22:23:19.626Z,41.10
2019-04-05T22:25:48.210Z,41.90
2019-04-05T22:28:16.789Z,40.30
2019-04-05T22:30:45.341Z,41.40
2019-04-05T22:33:13.901Z,38.97
2019-04-05T22:35:42.498Z,44.43
2019-04-05T22:38:11.062Z,41.17
2019-04-05T22:40:39.650Z,41.67
2019-04-05T22:43:08.134Z,42.10
2019-04-05T22:45:36.709Z,42.20
2019-04-05T22:48:05.271Z,41.77
2019-04-05T22:50:33.875Z,39.17
2019-04-05T22:53:02.465Z,41.50
2019-04-05T22:55:31.045Z,42.17
2019-04-05T22:57:59.595Z,41.23
2019-04-05T23:00:28.107Z,43.00
2019-04-05T23:02:56.579Z,42.67
2019-04-05T23:05:25.159Z,40.27
2019-04-05T23:07:53.710Z,41.70
2019-04-05T23:10:22.240Z,42.97
2019-04-05T23:12:50.748Z,42.50
2019-04-05T23:15:19.289Z,40.60
2019-04-05T23:17:47.858Z,41.63
2019-04-05T23:20:16.430Z,40.93
2019-04-05T23:22:44.931Z,41.50
2019-04-05T23:25:21.910Z,43.87
2019-04-05T23:27:43.716Z,41.70
2019-04-05T23:30:12.728Z,42.07
2019-04-05T23:32:41.311Z,42.00
2019-04-05T23:35:09.977Z,42.07
2019-04-05T23:37:38.529Z,41.33
2019-04-05T23:40:07.343Z,41.50
2019-04-05T23:42:35.841Z,39.23
2019-04-05T23:45:06.263Z,42.07
2019-04-05T23:47:34.826Z,44.00
2019-04-05T23:50:03.515Z,43.10
2019-04-05T23:52:32.081Z,41.23
2019-04-05T23:55:00.556Z,39.13
2019-04-05T23:57:29.075Z,41.47
2019-04-05T23:59:57.591Z,39.80
